sensor_id;sensor_type;location;lat;lon;timestamp;P1;durP1;ratioP1;P2;durP2;ratioP2
36379;SDS011;22411;53.016;18.632;2023-05-01T00:00:49;16.10;;;8.57;;
36379;SDS011;22411;53.016;18.632;2023-05-01T00:03:57;15.43;;;7.50;;
36379;SDS011;22411;53.016;18.632;2023-05-01T00:06:51;14.53;;;8.37;;
36379;SDS011;22411;53.016;18.632;2023-05-01T00:09:37;13.60;;;8.20;;
36379;SDS011;22411;53.016;18.632;2023-05-01T00:12:32;13.90;;;9.10;;
36379;SDS011;22411;53.016;18.632;2023-05-01T00:18:25;18.20;;;11.30;;
36379;SDS011;22411;53.016;18.632;2023-05-01T00:21:30;22.13;;;12.00;;
36379;SDS011;22411;53.016;18.632;2023-05-01T00:24:34;20.23;;;11.90;;
36379;SDS011;22411;53.016;18.632;2023-05-01T00:27:37;26.40;;;14.03;;
36379;SDS011;22411;53.016;18.632;2023-05-01T00:31:08;25.17;;;14.13;;
36379;SDS011;22411;53.016;18.632;2023-05-01T00:34:28;22.17;;;11.23;;
36379;SDS011;22411;53.016;18.632;2023-05-01T00:37:19;15.90;;;10.47;;
36379;SDS011;22411;53.016;18.632;2023-05-01T00:40:03;16.03;;;10.57;;
36379;SDS011;22411;53.016;18.632;2023-05-01T00:43:00;17.73;;;10.57;;
36379;SDS011;22411;53.016;18.632;2023-05-01T00:45:47;17.77;;;10.60;;
36379;SDS011;22411;53.016;18.632;2023-05-01T00:48:34;19.77;;;9.90;;
36379;SDS011;22411;53.016;18.632;2023-05-01T00:51:21;18.30;;;10.60;;
36379;SDS011;22411;53.016;18.632;2023-05-01T00:54:54;15.57;;;8.53;;
36379;SDS011;22411;53.016;18.632;2023-05-01T00:58:09;13.00;;;7.87;;
36379;SDS011;22411;53.016;18.632;2023-05-01T01:01:05;14.27;;;8.23;;
36379;SDS011;22411;53.016;18.632;2023-05-01T01:03:51;14.47;;;7.87;;
36379;SDS011;22411;53.016;18.632;2023-05-01T01:10:16;13.60;;;7.00;;
36379;SDS011;22411;53.016;18.632;2023-05-01T01:17:03;12.80;;;6.53;;
36379;SDS011;22411;53.016;18.632;2023-05-01T01:37:21;14.07;;;7.97;;
36379;SDS011;22411;53.016;18.632;2023-05-01T01:40:14;12.63;;;8.07;;
36379;SDS011;22411;53.016;18.632;2023-05-01T01:43:15;19.07;;;9.73;;
36379;SDS011;22411;53.016;18.632;2023-05-01T01:49:23;19.07;;;10.20;;
36379;SDS011;22411;53.016;18.632;2023-05-01T01:52:19;23.23;;;11.52;;
36379;SDS011;22411;53.016;18.632;2023-05-01T01:55:10;17.90;;;11.73;;
36379;SDS011;22411;53.016;18.632;2023-05-01T01:58:18;23.27;;;12.30;;
36379;SDS011;22411;53.016;18.632;2023-05-01T02:04:21;18.13;;;11.83;;
36379;SDS011;22411;53.016;18.632;2023-05-01T02:07:26;18.70;;;12.57;;
36379;SDS011;22411;53.016;18.632;2023-05-01T02:10:22;17.60;;;12.00;;
36379;SDS011;22411;53.016;18.632;2023-05-01T02:13:09;19.13;;;11.40;;
36379;SDS011;22411;53.016;18.632;2023-05-01T02:15:57;18.20;;;11.77;;
36379;SDS011;22411;53.016;18.632;2023-05-01T02:18:55;17.93;;;10.93;;
36379;SDS011;22411;53.016;18.632;2023-05-01T02:28:31;15.67;;;10.23;;
36379;SDS011;22411;53.016;18.632;2023-05-01T02:34:34;18.63;;;11.60;;
36379;SDS011;22411;53.016;18.632;2023-05-01T02:37:19;19.07;;;10.63;;
36379;SDS011;22411;53.016;18.632;2023-05-01T02:40:20;23.03;;;12.43;;
36379;SDS011;22411;53.016;18.632;2023-05-01T02:43:05;18.93;;;11.70;;
36379;SDS011;22411;53.016;18.632;2023-05-01T02:45:53;21.00;;;12.30;;
36379;SDS011;22411;53.016;18.632;2023-05-01T02:48:51;22.63;;;13.63;;
36379;SDS011;22411;53.016;18.632;2023-05-01T02:51:39;21.10;;;13.23;;
36379;SDS011;22411;53.016;18.632;2023-05-01T02:57:31;25.20;;;13.97;;
36379;SDS011;22411;53.016;18.632;2023-05-01T03:00:21;23.17;;;15.03;;
36379;SDS011;22411;53.016;18.632;2023-05-01T03:03:06;21.27;;;13.20;;
36379;SDS011;22411;53.016;18.632;2023-05-01T03:06:07;25.10;;;13.93;;
36379;SDS011;22411;53.016;18.632;2023-05-01T03:08:53;21.23;;;13.25;;
36379;SDS011;22411;53.016;18.632;2023-05-01T03:11:46;21.77;;;13.57;;
36379;SDS011;22411;53.016;18.632;2023-05-01T03:17:59;21.97;;;13.17;;
36379;SDS011;22411;53.016;18.632;2023-05-01T03:21:00;23.07;;;14.60;;
36379;SDS011;22411;53.016;18.632;2023-05-01T03:27:31;29.43;;;15.23;;
36379;SDS011;22411;53.016;18.632;2023-05-01T03:30:29;27.37;;;15.13;;
36379;SDS011;22411;53.016;18.632;2023-05-01T03:33:19;30.27;;;16.20;;
36379;SDS011;22411;53.016;18.632;2023-05-01T03:36:22;22.57;;;14.97;;
36379;SDS011;22411;53.016;18.632;2023-05-01T03:39:11;27.93;;;16.43;;
36379;SDS011;22411;53.016;18.632;2023-05-01T03:45:19;27.80;;;15.63;;
36379;SDS011;22411;53.016;18.632;2023-05-01T03:48:10;31.37;;;17.50;;
36379;SDS011;22411;53.016;18.632;2023-05-01T03:54:19;29.77;;;16.40;;
36379;SDS011;22411;53.016;18.632;2023-05-01T03:57:16;124.40;;;20.00;;
36379;SDS011;22411;53.016;18.632;2023-05-01T04:00:00;33.20;;;16.50;;
36379;SDS011;22411;53.016;18.632;2023-05-01T04:03:05;102.30;;;20.97;;
36379;SDS011;22411;53.016;18.632;2023-05-01T04:06:04;30.73;;;17.33;;
36379;SDS011;22411;53.016;18.632;2023-05-01T04:09:12;115.33;;;21.40;;
36379;SDS011;22411;53.016;18.632;2023-05-01T04:12:06;36.60;;;16.30;;
36379;SDS011;22411;53.016;18.632;2023-05-01T04:15:19;36.03;;;17.13;;
36379;SDS011;22411;53.016;18.632;2023-05-01T04:24:57;29.53;;;15.87;;
36379;SDS011;22411;53.016;18.632;2023-05-01T04:28:09;28.27;;;15.67;;
36379;SDS011;22411;53.016;18.632;2023-05-01T04:30:54;20.37;;;15.13;;
36379;SDS011;22411;53.016;18.632;2023-05-01T04:33:55;26.07;;;15.70;;
36379;SDS011;22411;53.016;18.632;2023-05-01T04:36:55;23.67;;;15.30;;
36379;SDS011;22411;53.016;18.632;2023-05-01T04:39:52;22.63;;;14.80;;
36379;SDS011;22411;53.016;18.632;2023-05-01T04:42:54;20.10;;;13.67;;
36379;SDS011;22411;53.016;18.632;2023-05-01T04:45:38;24.10;;;14.87;;
36379;SDS011;22411;53.016;18.632;2023-05-01T04:48:52;20.60;;;13.33;;
36379;SDS011;22411;53.016;18.632;2023-05-01T04:51:56;18.80;;;13.45;;
36379;SDS011;22411;53.016;18.632;2023-05-01T04:54:55;23.27;;;14.83;;
36379;SDS011;22411;53.016;18.632;2023-05-01T04:57:48;22.20;;;14.50;;
36379;SDS011;22411;53.016;18.632;2023-05-01T05:00:40;19.00;;;12.20;;
36379;SDS011;22411;53.016;18.632;2023-05-01T05:03:49;19.77;;;12.53;;
36379;SDS011;22411;53.016;18.632;2023-05-01T05:06:38;19.40;;;13.53;;
36379;SDS011;22411;53.016;18.632;2023-05-01T05:09:31;21.90;;;11.90;;
36379;SDS011;22411;53.016;18.632;2023-05-01T05:12:27;19.93;;;12.77;;
36379;SDS011;22411;53.016;18.632;2023-05-01T05:15:11;20.60;;;11.07;;
36379;SDS011;22411;53.016;18.632;2023-05-01T05:18:41;20.00;;;12.57;;
36379;SDS011;22411;53.016;18.632;2023-05-01T05:21:28;20.27;;;12.27;;
36379;SDS011;22411;53.016;18.632;2023-05-01T05:24:33;17.33;;;11.00;;
36379;SDS011;22411;53.016;18.632;2023-05-01T05:27:36;16.53;;;10.80;;
36379;SDS011;22411;53.016;18.632;2023-05-01T05:34:12;18.57;;;11.07;;
36379;SDS011;22411;53.016;18.632;2023-05-01T05:40:53;18.75;;;11.23;;
36379;SDS011;22411;53.016;18.632;2023-05-01T05:46:33;21.37;;;10.73;;
36379;SDS011;22411;53.016;18.632;2023-05-01T05:49:50;17.00;;;10.10;;
36379;SDS011;22411;53.016;18.632;2023-05-01T05:52:34;18.23;;;11.00;;
36379;SDS011;22411;53.016;18.632;2023-05-01T05:55:20;16.90;;;10.70;;
36379;SDS011;22411;53.016;18.632;2023-05-01T05:58:06;15.97;;;10.97;;
36379;SDS011;22411;53.016;18.632;2023-05-01T06:01:02;18.60;;;12.00;;
36379;SDS011;22411;53.016;18.632;2023-05-01T06:04:18;19.27;;;12.13;;
36379;SDS011;22411;53.016;18.632;2023-05-01T06:07:06;16.40;;;11.40;;
36379;SDS011;22411;53.016;18.632;2023-05-01T06:10:00;17.43;;;9.40;;
36379;SDS011;22411;53.016;18.632;2023-05-01T06:13:12;15.80;;;9.77;;
36379;SDS011;22411;53.016;18.632;2023-05-01T06:16:25;13.20;;;8.75;;
36379;SDS011;22411;53.016;18.632;2023-05-01T06:19:12;15.82;;;8.75;;
36379;SDS011;22411;53.016;18.632;2023-05-01T06:22:44;9.70;;;7.35;;
36379;SDS011;22411;53.016;18.632;2023-05-01T06:28:36;14.02;;;8.05;;
36379;SDS011;22411;53.016;18.632;2023-05-01T06:31:44;12.10;;;7.35;;
36379;SDS011;22411;53.016;18.632;2023-05-01T06:34:27;11.90;;;7.07;;
36379;SDS011;22411;53.016;18.632;2023-05-01T06:37:22;14.25;;;7.15;;
36379;SDS011;22411;53.016;18.632;2023-05-01T06:40:26;13.02;;;6.50;;
36379;SDS011;22411;53.016;18.632;2023-05-01T06:43:18;11.35;;;5.85;;
36379;SDS011;22411;53.016;18.632;2023-05-01T06:46:02;10.15;;;6.53;;
36379;SDS011;22411;53.016;18.632;2023-05-01T06:48:50;8.00;;;5.43;;
36379;SDS011;22411;53.016;18.632;2023-05-01T06:51:56;11.88;;;5.65;;
36379;SDS011;22411;53.016;18.632;2023-05-01T06:55:00;7.63;;;3.38;;
36379;SDS011;22411;53.016;18.632;2023-05-01T06:57:56;3.70;;;2.58;;
36379;SDS011;22411;53.016;18.632;2023-05-01T07:00:49;4.30;;;2.53;;
36379;SDS011;22411;53.016;18.632;2023-05-01T07:03:39;5.10;;;1.98;;
36379;SDS011;22411;53.016;18.632;2023-05-01T07:06:31;4.05;;;1.17;;
36379;SDS011;22411;53.016;18.632;2023-05-01T07:09:41;5.43;;;2.63;;
36379;SDS011;22411;53.016;18.632;2023-05-01T07:12:43;8.55;;;1.90;;
36379;SDS011;22411;53.016;18.632;2023-05-01T07:15:28;4.63;;;2.22;;
36379;SDS011;22411;53.016;18.632;2023-05-01T07:22:03;6.00;;;2.13;;
36379;SDS011;22411;53.016;18.632;2023-05-01T07:24:48;4.03;;;1.55;;
36379;SDS011;22411;53.016;18.632;2023-05-01T07:27:48;4.68;;;1.90;;
36379;SDS011;22411;53.016;18.632;2023-05-01T07:30:45;4.47;;;1.58;;
36379;SDS011;22411;53.016;18.632;2023-05-01T07:33:29;5.03;;;1.13;;
36379;SDS011;22411;53.016;18.632;2023-05-01T07:36:13;4.60;;;1.55;;
36379;SDS011;22411;53.016;18.632;2023-05-01T07:39:25;7.88;;;2.30;;
36379;SDS011;22411;53.016;18.632;2023-05-01T07:42:12;4.28;;;1.65;;
36379;SDS011;22411;53.016;18.632;2023-05-01T07:45:19;5.88;;;1.92;;
36379;SDS011;22411;53.016;18.632;2023-05-01T07:48:06;3.78;;;1.10;;
36379;SDS011;22411;53.016;18.632;2023-05-01T07:50:53;7.00;;;1.60;;
36379;SDS011;22411;53.016;18.632;2023-05-01T07:54:00;6.03;;;1.27;;
36379;SDS011;22411;53.016;18.632;2023-05-01T07:57:07;4.15;;;1.40;;
36379;SDS011;22411;53.016;18.632;2023-05-01T08:00:24;3.35;;;1.42;;
36379;SDS011;22411;53.016;18.632;2023-05-01T08:03:30;3.67;;;1.08;;
36379;SDS011;22411;53.016;18.632;2023-05-01T08:06:19;4.57;;;1.35;;
36379;SDS011;22411;53.016;18.632;2023-05-01T08:09:16;4.20;;;1.33;;
36379;SDS011;22411;53.016;18.632;2023-05-01T08:18:42;4.07;;;1.80;;
36379;SDS011;22411;53.016;18.632;2023-05-01T08:25:04;4.47;;;1.85;;
36379;SDS011;22411;53.016;18.632;2023-05-01T08:28:18;3.38;;;1.40;;
36379;SDS011;22411;53.016;18.632;2023-05-01T08:31:40;3.05;;;1.38;;
36379;SDS011;22411;53.016;18.632;2023-05-01T08:37:37;3.83;;;1.33;;
36379;SDS011;22411;53.016;18.632;2023-05-01T08:40:45;3.83;;;1.35;;
36379;SDS011;22411;53.016;18.632;2023-05-01T08:43:49;5.03;;;1.00;;
36379;SDS011;22411;53.016;18.632;2023-05-01T08:46:37;5.88;;;1.42;;
36379;SDS011;22411;53.016;18.632;2023-05-01T08:49:50;2.78;;;1.00;;
36379;SDS011;22411;53.016;18.632;2023-05-01T08:52:43;2.45;;;0.80;;
36379;SDS011;22411;53.016;18.632;2023-05-01T08:55:53;2.20;;;0.70;;
36379;SDS011;22411;53.016;18.632;2023-05-01T08:59:02;4.88;;;2.15;;
36379;SDS011;22411;53.016;18.632;2023-05-01T09:02:13;6.47;;;0.85;;
36379;SDS011;22411;53.016;18.632;2023-05-01T09:05:19;6.43;;;1.83;;
36379;SDS011;22411;53.016;18.632;2023-05-01T09:08:30;2.55;;;0.77;;
36379;SDS011;22411;53.016;18.632;2023-05-01T09:11:58;2.67;;;0.73;;
36379;SDS011;22411;53.016;18.632;2023-05-01T09:15:02;4.03;;;1.45;;
36379;SDS011;22411;53.016;18.632;2023-05-01T09:18:05;3.67;;;1.52;;
36379;SDS011;22411;53.016;18.632;2023-05-01T09:20:52;2.10;;;0.50;;
36379;SDS011;22411;53.016;18.632;2023-05-01T09:23:38;4.07;;;1.25;;
36379;SDS011;22411;53.016;18.632;2023-05-01T09:26:23;4.45;;;1.00;;
36379;SDS011;22411;53.016;18.632;2023-05-01T09:29:07;3.10;;;0.68;;
36379;SDS011;22411;53.016;18.632;2023-05-01T09:31:53;3.20;;;0.98;;
36379;SDS011;22411;53.016;18.632;2023-05-01T09:34:44;2.35;;;1.08;;
36379;SDS011;22411;53.016;18.632;2023-05-01T09:37:29;4.07;;;1.27;;
36379;SDS011;22411;53.016;18.632;2023-05-01T09:40:14;2.42;;;0.75;;
36379;SDS011;22411;53.016;18.632;2023-05-01T09:42:59;2.90;;;0.80;;
36379;SDS011;22411;53.016;18.632;2023-05-01T09:45:58;2.70;;;1.08;;
36379;SDS011;22411;53.016;18.632;2023-05-01T09:48:53;2.63;;;1.35;;
36379;SDS011;22411;53.016;18.632;2023-05-01T09:51:47;3.45;;;0.70;;
36379;SDS011;22411;53.016;18.632;2023-05-01T09:54:32;3.90;;;0.70;;
36379;SDS011;22411;53.016;18.632;2023-05-01T09:57:16;4.85;;;1.15;;
36379;SDS011;22411;53.016;18.632;2023-05-01T10:00:00;3.35;;;0.80;;
36379;SDS011;22411;53.016;18.632;2023-05-01T10:02:50;2.95;;;1.05;;
36379;SDS011;22411;53.016;18.632;2023-05-01T10:05:41;3.40;;;1.10;;
36379;SDS011;22411;53.016;18.632;2023-05-01T10:09:00;2.47;;;0.60;;
36379;SDS011;22411;53.016;18.632;2023-05-01T10:11:47;2.95;;;0.90;;
36379;SDS011;22411;53.016;18.632;2023-05-01T10:14:47;3.90;;;0.80;;
36379;SDS011;22411;53.016;18.632;2023-05-01T10:17:35;4.82;;;1.50;;
36379;SDS011;22411;53.016;18.632;2023-05-01T10:20:21;3.17;;;0.50;;
36379;SDS011;22411;53.016;18.632;2023-05-01T10:23:06;3.83;;;0.95;;
36379;SDS011;22411;53.016;18.632;2023-05-01T10:25:51;2.38;;;0.85;;
36379;SDS011;22411;53.016;18.632;2023-05-01T10:28:38;2.97;;;0.68;;
36379;SDS011;22411;53.016;18.632;2023-05-01T10:31:24;2.75;;;0.73;;
36379;SDS011;22411;53.016;18.632;2023-05-01T10:34:15;4.65;;;1.27;;
36379;SDS011;22411;53.016;18.632;2023-05-01T10:37:05;3.50;;;1.13;;
36379;SDS011;22411;53.016;18.632;2023-05-01T10:43:28;2.97;;;0.68;;
36379;SDS011;22411;53.016;18.632;2023-05-01T10:49:04;3.20;;;1.67;;
36379;SDS011;22411;53.016;18.632;2023-05-01T10:54:42;2.30;;;0.60;;
36379;SDS011;22411;53.016;18.632;2023-05-01T10:57:40;6.50;;;1.42;;
36379;SDS011;22411;53.016;18.632;2023-05-01T11:00:27;3.47;;;0.90;;
36379;SDS011;22411;53.016;18.632;2023-05-01T11:06:05;2.92;;;1.25;;
36379;SDS011;22411;53.016;18.632;2023-05-01T11:08:49;2.70;;;0.73;;
36379;SDS011;22411;53.016;18.632;2023-05-01T11:14:17;5.28;;;1.10;;
36379;SDS011;22411;53.016;18.632;2023-05-01T11:17:02;2.72;;;0.98;;
36379;SDS011;22411;53.016;18.632;2023-05-01T11:19:46;2.88;;;1.13;;
36379;SDS011;22411;53.016;18.632;2023-05-01T11:22:35;2.92;;;0.93;;
36379;SDS011;22411;53.016;18.632;2023-05-01T11:25:21;5.03;;;1.15;;
36379;SDS011;22411;53.016;18.632;2023-05-01T11:28:05;3.22;;;0.88;;
36379;SDS011;22411;53.016;18.632;2023-05-01T11:30:49;3.20;;;1.05;;
36379;SDS011;22411;53.016;18.632;2023-05-01T11:33:34;2.65;;;1.05;;
36379;SDS011;22411;53.016;18.632;2023-05-01T11:36:19;5.07;;;1.20;;
36379;SDS011;22411;53.016;18.632;2023-05-01T11:39:03;3.05;;;1.02;;
36379;SDS011;22411;53.016;18.632;2023-05-01T11:41:47;3.70;;;0.80;;
36379;SDS011;22411;53.016;18.632;2023-05-01T11:44:31;4.28;;;2.08;;
36379;SDS011;22411;53.016;18.632;2023-05-01T11:47:15;2.53;;;0.65;;
36379;SDS011;22411;53.016;18.632;2023-05-01T11:50:00;3.08;;;1.70;;
36379;SDS011;22411;53.016;18.632;2023-05-01T11:52:45;3.10;;;0.70;;
36379;SDS011;22411;53.016;18.632;2023-05-01T11:55:36;2.88;;;0.68;;
36379;SDS011;22411;53.016;18.632;2023-05-01T11:58:30;2.83;;;0.73;;
36379;SDS011;22411;53.016;18.632;2023-05-01T12:01:19;4.22;;;1.25;;
36379;SDS011;22411;53.016;18.632;2023-05-01T12:04:03;3.05;;;0.60;;
36379;SDS011;22411;53.016;18.632;2023-05-01T12:06:48;4.43;;;1.55;;
36379;SDS011;22411;53.016;18.632;2023-05-01T12:09:33;5.32;;;1.25;;
36379;SDS011;22411;53.016;18.632;2023-05-01T12:12:18;2.88;;;1.02;;
36379;SDS011;22411;53.016;18.632;2023-05-01T12:15:02;3.33;;;1.10;;
36379;SDS011;22411;53.016;18.632;2023-05-01T12:17:47;3.55;;;1.35;;
36379;SDS011;22411;53.016;18.632;2023-05-01T12:20:38;2.85;;;1.08;;
36379;SDS011;22411;53.016;18.632;2023-05-01T12:23:31;2.90;;;1.23;;
36379;SDS011;22411;53.016;18.632;2023-05-01T12:26:17;5.30;;;1.25;;
36379;SDS011;22411;53.016;18.632;2023-05-01T12:29:03;4.90;;;1.58;;
36379;SDS011;22411;53.016;18.632;2023-05-01T12:31:49;7.82;;;1.90;;
36379;SDS011;22411;53.016;18.632;2023-05-01T12:34:33;5.20;;;1.73;;
36379;SDS011;22411;53.016;18.632;2023-05-01T12:37:18;3.80;;;1.17;;
36379;SDS011;22411;53.016;18.632;2023-05-01T12:40:02;3.95;;;1.38;;
36379;SDS011;22411;53.016;18.632;2023-05-01T12:42:53;2.38;;;1.13;;
36379;SDS011;22411;53.016;18.632;2023-05-01T12:48:24;2.80;;;0.90;;
36379;SDS011;22411;53.016;18.632;2023-05-01T12:51:09;3.53;;;0.70;;
36379;SDS011;22411;53.016;18.632;2023-05-01T12:54:01;4.15;;;0.77;;
36379;SDS011;22411;53.016;18.632;2023-05-01T12:56:46;4.82;;;0.60;;
36379;SDS011;22411;53.016;18.632;2023-05-01T12:59:30;3.63;;;0.85;;
36379;SDS011;22411;53.016;18.632;2023-05-01T13:02:16;3.47;;;0.93;;
36379;SDS011;22411;53.016;18.632;2023-05-01T13:05:04;4.20;;;1.50;;
36379;SDS011;22411;53.016;18.632;2023-05-01T13:07:52;4.82;;;2.50;;
36379;SDS011;22411;53.016;18.632;2023-05-01T13:10:36;3.00;;;1.23;;
36379;SDS011;22411;53.016;18.632;2023-05-01T13:13:25;5.57;;;1.23;;
36379;SDS011;22411;53.016;18.632;2023-05-01T13:16:14;2.25;;;0.63;;
36379;SDS011;22411;53.016;18.632;2023-05-01T13:18:59;6.00;;;2.78;;
36379;SDS011;22411;53.016;18.632;2023-05-01T13:21:47;7.22;;;2.65;;
36379;SDS011;22411;53.016;18.632;2023-05-01T13:24:35;2.55;;;1.27;;
36379;SDS011;22411;53.016;18.632;2023-05-01T13:27:21;4.47;;;2.15;;
36379;SDS011;22411;53.016;18.632;2023-05-01T13:30:06;4.15;;;1.80;;
36379;SDS011;22411;53.016;18.632;2023-05-01T13:32:51;3.92;;;1.77;;
36379;SDS011;22411;53.016;18.632;2023-05-01T13:35:35;3.53;;;1.23;;
36379;SDS011;22411;53.016;18.632;2023-05-01T13:38:21;5.65;;;2.55;;
36379;SDS011;22411;53.016;18.632;2023-05-01T13:41:11;4.45;;;2.63;;
36379;SDS011;22411;53.016;18.632;2023-05-01T13:44:06;7.00;;;4.15;;
36379;SDS011;22411;53.016;18.632;2023-05-01T13:46:50;3.67;;;1.27;;
36379;SDS011;22411;53.016;18.632;2023-05-01T13:49:34;2.75;;;1.40;;
36379;SDS011;22411;53.016;18.632;2023-05-01T13:52:24;7.65;;;4.03;;
36379;SDS011;22411;53.016;18.632;2023-05-01T13:55:09;8.85;;;3.72;;
36379;SDS011;22411;53.016;18.632;2023-05-01T13:57:53;11.60;;;8.10;;
36379;SDS011;22411;53.016;18.632;2023-05-01T14:00:39;5.50;;;1.75;;
36379;SDS011;22411;53.016;18.632;2023-05-01T14:03:24;3.72;;;1.45;;
36379;SDS011;22411;53.016;18.632;2023-05-01T14:06:09;5.40;;;1.48;;
36379;SDS011;22411;53.016;18.632;2023-05-01T14:08:56;4.35;;;2.10;;
36379;SDS011;22411;53.016;18.632;2023-05-01T14:11:43;7.53;;;3.15;;
36379;SDS011;22411;53.016;18.632;2023-05-01T14:14:30;6.00;;;1.55;;
36379;SDS011;22411;53.016;18.632;2023-05-01T14:17:15;2.88;;;1.00;;
36379;SDS011;22411;53.016;18.632;2023-05-01T14:20:00;2.67;;;1.17;;
36379;SDS011;22411;53.016;18.632;2023-05-01T14:22:46;4.00;;;1.83;;
36379;SDS011;22411;53.016;18.632;2023-05-01T14:25:34;3.60;;;1.08;;
36379;SDS011;22411;53.016;18.632;2023-05-01T14:28:19;1.48;;;0.70;;
36379;SDS011;22411;53.016;18.632;2023-05-01T14:31:03;3.60;;;0.82;;
36379;SDS011;22411;53.016;18.632;2023-05-01T14:33:48;5.22;;;0.98;;
36379;SDS011;22411;53.016;18.632;2023-05-01T14:36:37;7.32;;;0.80;;
36379;SDS011;22411;53.016;18.632;2023-05-01T14:39:21;2.58;;;0.88;;
36379;SDS011;22411;53.016;18.632;2023-05-01T14:42:06;2.67;;;0.70;;
36379;SDS011;22411;53.016;18.632;2023-05-01T14:44:50;3.35;;;0.88;;
36379;SDS011;22411;53.016;18.632;2023-05-01T14:47:34;3.53;;;1.38;;
36379;SDS011;22411;53.016;18.632;2023-05-01T14:50:19;2.50;;;0.65;;
36379;SDS011;22411;53.016;18.632;2023-05-01T14:53:05;2.83;;;1.30;;
36379;SDS011;22411;53.016;18.632;2023-05-01T14:55:50;5.45;;;0.90;;
36379;SDS011;22411;53.016;18.632;2023-05-01T14:58:34;4.25;;;1.17;;
36379;SDS011;22411;53.016;18.632;2023-05-01T15:01:18;4.78;;;1.17;;
36379;SDS011;22411;53.016;18.632;2023-05-01T15:04:05;3.20;;;2.03;;
36379;SDS011;22411;53.016;18.632;2023-05-01T15:06:50;4.63;;;1.35;;
36379;SDS011;22411;53.016;18.632;2023-05-01T15:09:35;4.03;;;0.82;;
36379;SDS011;22411;53.016;18.632;2023-05-01T15:12:20;3.97;;;1.00;;
36379;SDS011;22411;53.016;18.632;2023-05-01T15:15:04;4.00;;;0.88;;
36379;SDS011;22411;53.016;18.632;2023-05-01T15:17:49;2.53;;;1.00;;
36379;SDS011;22411;53.016;18.632;2023-05-01T15:20:34;3.65;;;1.23;;
36379;SDS011;22411;53.016;18.632;2023-05-01T15:23:18;2.88;;;0.98;;
36379;SDS011;22411;53.016;18.632;2023-05-01T15:26:02;4.07;;;1.55;;
36379;SDS011;22411;53.016;18.632;2023-05-01T15:28:47;2.83;;;1.33;;
36379;SDS011;22411;53.016;18.632;2023-05-01T15:31:31;3.53;;;0.93;;
36379;SDS011;22411;53.016;18.632;2023-05-01T15:34:15;3.45;;;1.27;;
36379;SDS011;22411;53.016;18.632;2023-05-01T15:36:59;4.45;;;1.17;;
36379;SDS011;22411;53.016;18.632;2023-05-01T15:39:43;4.15;;;1.30;;
36379;SDS011;22411;53.016;18.632;2023-05-01T15:42:27;3.15;;;1.25;;
36379;SDS011;22411;53.016;18.632;2023-05-01T15:45:11;4.07;;;1.33;;
36379;SDS011;22411;53.016;18.632;2023-05-01T15:47:55;3.92;;;1.42;;
36379;SDS011;22411;53.016;18.632;2023-05-01T15:50:39;3.78;;;1.08;;
36379;SDS011;22411;53.016;18.632;2023-05-01T15:53:26;4.57;;;1.58;;
36379;SDS011;22411;53.016;18.632;2023-05-01T15:56:10;3.28;;;1.17;;
36379;SDS011;22411;53.016;18.632;2023-05-01T15:58:55;5.80;;;1.55;;
36379;SDS011;22411;53.016;18.632;2023-05-01T16:01:39;3.10;;;1.08;;
36379;SDS011;22411;53.016;18.632;2023-05-01T16:04:25;3.13;;;1.00;;
36379;SDS011;22411;53.016;18.632;2023-05-01T16:07:16;5.15;;;1.25;;
36379;SDS011;22411;53.016;18.632;2023-05-01T16:10:01;2.92;;;1.10;;
36379;SDS011;22411;53.016;18.632;2023-05-01T16:12:46;6.82;;;1.35;;
36379;SDS011;22411;53.016;18.632;2023-05-01T16:15:33;3.40;;;1.38;;
36379;SDS011;22411;53.016;18.632;2023-05-01T16:18:21;4.97;;;1.15;;
36379;SDS011;22411;53.016;18.632;2023-05-01T16:21:10;3.47;;;1.58;;
36379;SDS011;22411;53.016;18.632;2023-05-01T16:23:56;3.53;;;1.25;;
36379;SDS011;22411;53.016;18.632;2023-05-01T16:26:40;6.93;;;1.88;;
36379;SDS011;22411;53.016;18.632;2023-05-01T16:29:25;4.03;;;1.67;;
36379;SDS011;22411;53.016;18.632;2023-05-01T16:32:09;3.88;;;1.25;;
36379;SDS011;22411;53.016;18.632;2023-05-01T16:34:54;2.72;;;1.40;;
36379;SDS011;22411;53.016;18.632;2023-05-01T16:37:39;4.90;;;1.90;;
36379;SDS011;22411;53.016;18.632;2023-05-01T16:40:23;3.90;;;1.48;;
36379;SDS011;22411;53.016;18.632;2023-05-01T16:43:07;5.43;;;1.50;;
36379;SDS011;22411;53.016;18.632;2023-05-01T16:45:51;3.03;;;1.80;;
36379;SDS011;22411;53.016;18.632;2023-05-01T16:48:39;5.57;;;1.38;;
36379;SDS011;22411;53.016;18.632;2023-05-01T16:51:23;7.18;;;1.48;;
36379;SDS011;22411;53.016;18.632;2023-05-01T16:54:07;6.70;;;2.08;;
36379;SDS011;22411;53.016;18.632;2023-05-01T16:56:51;4.57;;;1.85;;
36379;SDS011;22411;53.016;18.632;2023-05-01T16:59:36;5.88;;;2.10;;
36379;SDS011;22411;53.016;18.632;2023-05-01T17:02:20;5.78;;;1.65;;
36379;SDS011;22411;53.016;18.632;2023-05-01T17:05:04;6.13;;;1.55;;
36379;SDS011;22411;53.016;18.632;2023-05-01T17:07:49;5.80;;;2.53;;
36379;SDS011;22411;53.016;18.632;2023-05-01T17:10:33;6.13;;;2.30;;
36379;SDS011;22411;53.016;18.632;2023-05-01T17:13:18;6.57;;;1.95;;
36379;SDS011;22411;53.016;18.632;2023-05-01T17:16:02;3.75;;;1.98;;
36379;SDS011;22411;53.016;18.632;2023-05-01T17:18:47;5.90;;;3.78;;
36379;SDS011;22411;53.016;18.632;2023-05-01T17:21:31;5.45;;;2.00;;
36379;SDS011;22411;53.016;18.632;2023-05-01T17:24:15;5.28;;;2.70;;
36379;SDS011;22411;53.016;18.632;2023-05-01T17:26:59;9.20;;;3.50;;
36379;SDS011;22411;53.016;18.632;2023-05-01T17:29:44;8.88;;;3.83;;
36379;SDS011;22411;53.016;18.632;2023-05-01T17:32:28;7.10;;;2.60;;
36379;SDS011;22411;53.016;18.632;2023-05-01T17:35:13;6.32;;;3.33;;
36379;SDS011;22411;53.016;18.632;2023-05-01T17:37:59;8.65;;;4.53;;
36379;SDS011;22411;53.016;18.632;2023-05-01T17:40:43;10.05;;;5.28;;
36379;SDS011;22411;53.016;18.632;2023-05-01T17:43:28;6.82;;;3.85;;
36379;SDS011;22411;53.016;18.632;2023-05-01T17:46:12;5.63;;;3.42;;
36379;SDS011;22411;53.016;18.632;2023-05-01T17:48:56;8.48;;;2.47;;
36379;SDS011;22411;53.016;18.632;2023-05-01T17:51:41;6.15;;;3.05;;
36379;SDS011;22411;53.016;18.632;2023-05-01T17:54:28;6.30;;;3.60;;
36379;SDS011;22411;53.016;18.632;2023-05-01T17:57:12;10.65;;;4.43;;
36379;SDS011;22411;53.016;18.632;2023-05-01T17:59:56;5.30;;;3.25;;
36379;SDS011;22411;53.016;18.632;2023-05-01T18:02:42;5.55;;;3.63;;
36379;SDS011;22411;53.016;18.632;2023-05-01T18:05:29;7.38;;;3.63;;
36379;SDS011;22411;53.016;18.632;2023-05-01T18:08:14;8.38;;;3.70;;
36379;SDS011;22411;53.016;18.632;2023-05-01T18:10:58;10.00;;;4.03;;
36379;SDS011;22411;53.016;18.632;2023-05-01T18:13:42;9.65;;;4.68;;
36379;SDS011;22411;53.016;18.632;2023-05-01T18:16:30;8.02;;;4.55;;
36379;SDS011;22411;53.016;18.632;2023-05-01T18:19:14;8.48;;;5.57;;
36379;SDS011;22411;53.016;18.632;2023-05-01T18:21:58;12.45;;;7.32;;
36379;SDS011;22411;53.016;18.632;2023-05-01T18:24:42;14.82;;;8.70;;
36379;SDS011;22411;53.016;18.632;2023-05-01T18:27:26;16.20;;;10.20;;
36379;SDS011;22411;53.016;18.632;2023-05-01T18:30:10;19.73;;;11.77;;
36379;SDS011;22411;53.016;18.632;2023-05-01T18:32:55;19.33;;;12.32;;
36379;SDS011;22411;53.016;18.632;2023-05-01T18:35:40;35.60;;;25.00;;
36379;SDS011;22411;53.016;18.632;2023-05-01T18:38:24;18.80;;;12.73;;
36379;SDS011;22411;53.016;18.632;2023-05-01T18:41:10;24.52;;;15.93;;